FR-0257 weather

Clos De Legua Airport
Puyvalador, Languedoc-Roussillon, France

Public forecast

Using degrees Celsius for public forecast. Weather courtesy of forecast.io.

METAR (pilot weather report)

Report is more than 6 hours old.

Closest report is Pirineus - la Seu d'Urgel Airport, 33.7 nm (62.4 km) SW. Retrieved 2019/09/14 17:00 UTC (13 hours ago):

LESU 141700Z 11003KT 050V160 9999 FEW070 26/09 Q1026

TAF (pilot weather forecast)

Closest forecast is Pirineus - la Seu d'Urgel Airport, 33.7 nm (62.4 km) SW. Retrieved 2019/09/15 03:00 UTC (3 hours ago):

TAF LESU 150200Z 1503/1603 VRB04KT 9999 SCT060 TX26/1512Z TN13/1506Z TEMPO 1512/1517 21010KT PROB30 TEMPO 1503/1518 SHRA SCT050 FEW060CB